createdAt,value
2022-10-29T00:02:14.263Z,13.80
2022-10-29T00:04:41.001Z,13.90
2022-10-29T00:07:07.705Z,13.80
2022-10-29T00:09:35.520Z,13.80
2022-10-29T00:12:02.495Z,13.80
2022-10-29T00:14:29.304Z,13.80
2022-10-29T00:16:57.115Z,13.80
2022-10-29T00:19:26.055Z,13.70
2022-10-29T00:21:52.779Z,13.70
2022-10-29T00:24:19.885Z,13.70
2022-10-29T00:26:46.636Z,13.80
2022-10-29T00:29:13.401Z,13.70
2022-10-29T00:31:40.156Z,13.80
2022-10-29T00:34:06.995Z,13.80
2022-10-29T00:36:33.776Z,13.90
2022-10-29T00:39:00.912Z,13.90
2022-10-29T00:41:29.593Z,14.00
2022-10-29T00:44:14.620Z,14.10
2022-10-29T00:46:45.407Z,14.20
2022-10-29T00:49:12.384Z,14.20
2022-10-29T00:51:39.494Z,14.10
2022-10-29T00:54:12.320Z,14.00
2022-10-29T00:56:45.541Z,14.10
2022-10-29T00:59:14.102Z,14.10
2022-10-29T01:01:41.511Z,14.00
2022-10-29T01:04:09.646Z,14.10
2022-10-29T01:06:37.402Z,14.10
2022-10-29T01:09:04.449Z,14.00
2022-10-29T01:12:06.077Z,14.00
2022-10-29T01:14:53.248Z,14.00
2022-10-29T01:17:23.097Z,13.80
2022-10-29T01:20:31.668Z,13.70
2022-10-29T01:23:04.661Z,13.60
2022-10-29T01:25:53.706Z,13.60
2022-10-29T01:28:53.760Z,13.50
2022-10-29T01:31:35.906Z,13.50
2022-10-29T01:34:25.624Z,13.40
2022-10-29T01:36:53.489Z,13.30
2022-10-29T01:39:44.964Z,13.30
2022-10-29T01:42:38.761Z,13.30
2022-10-29T01:45:14.191Z,13.20
2022-10-29T01:48:07.186Z,13.10
2022-10-29T01:50:36.712Z,13.10
2022-10-29T01:53:05.849Z,13.00
2022-10-29T01:55:36.942Z,12.90
2022-10-29T01:58:07.838Z,12.80
2022-10-29T02:00:57.861Z,12.80
2022-10-29T02:03:41.480Z,12.80
2022-10-29T02:06:15.125Z,12.80
2022-10-29T02:08:50.184Z,12.80
2022-10-29T02:11:55.255Z,12.70
2022-10-29T02:14:37.093Z,12.70
2022-10-29T02:17:04.303Z,12.70
2022-10-29T02:19:32.883Z,12.70
2022-10-29T02:21:59.737Z,12.70
2022-10-29T02:24:26.663Z,12.60
2022-10-29T02:26:53.850Z,12.60
2022-10-29T02:29:21.026Z,12.50
2022-10-29T02:31:47.739Z,12.50
2022-10-29T02:34:14.649Z,12.50
2022-10-29T02:36:41.360Z,12.50
2022-10-29T02:39:08.530Z,12.50
2022-10-29T02:41:35.328Z,12.50
2022-10-29T02:44:02.066Z,12.50
2022-10-29T02:46:30.266Z,12.50
2022-10-29T02:48:57.224Z,12.40
2022-10-29T02:51:23.963Z,12.40
2022-10-29T02:53:51.129Z,12.40
2022-10-29T02:56:17.918Z,12.40
2022-10-29T02:58:44.770Z,12.50
2022-10-29T03:01:11.562Z,12.50
2022-10-29T03:03:38.733Z,12.60
2022-10-29T03:06:11.754Z,12.50
2022-10-29T03:08:38.532Z,12.50
2022-10-29T03:11:05.247Z,12.60
2022-10-29T03:13:32.421Z,12.70
2022-10-29T03:15:59.578Z,12.70
2022-10-29T03:18:26.383Z,12.70
2022-10-29T03:20:53.117Z,12.60
2022-10-29T03:23:19.861Z,12.60
2022-10-29T03:25:55.581Z,12.50
2022-10-29T03:28:25.272Z,12.60
2022-10-29T03:30:52.224Z,12.70
2022-10-29T03:33:18.927Z,12.70
2022-10-29T03:35:45.944Z,12.70
2022-10-29T03:38:13.197Z,12.60
2022-10-29T03:40:40.050Z,12.60
2022-10-29T03:43:06.829Z,12.50
2022-10-29T03:45:33.617Z,12.50
2022-10-29T03:48:00.386Z,12.50
2022-10-29T03:50:27.085Z,12.50
2022-10-29T03:52:54.238Z,12.50
2022-10-29T03:55:21.396Z,12.50
2022-10-29T03:57:48.103Z,12.40
2022-10-29T04:00:15.399Z,12.50
2022-10-29T04:02:42.337Z,12.60
2022-10-29T04:05:09.358Z,12.60
2022-10-29T04:07:36.093Z,12.50
2022-10-29T04:10:02.852Z,12.30
2022-10-29T04:12:29.713Z,12.40
2022-10-29T04:14:56.456Z,12.40
2022-10-29T04:17:23.181Z,12.50
2022-10-29T04:19:49.915Z,12.50
2022-10-29T04:24:12.229Z,12.50
2022-10-29T04:30:37.688Z,12.60
2022-10-29T04:33:04.489Z,12.70
2022-10-29T04:35:31.264Z,12.60
2022-10-29T04:37:57.990Z,12.60
2022-10-29T04:40:25.419Z,12.60
2022-10-29T04:42:52.673Z,12.70
2022-10-29T04:45:19.874Z,12.60
2022-10-29T04:47:46.755Z,12.50
2022-10-29T04:50:13.477Z,12.40
2022-10-29T04:52:40.285Z,12.20
2022-10-29T04:55:07.374Z,12.20
2022-10-29T04:57:34.120Z,12.10
2022-10-29T05:00:01.274Z,12.10
2022-10-29T05:02:28.476Z,12.10
2022-10-29T05:04:55.668Z,12.10
2022-10-29T05:07:22.484Z,12.20
2022-10-29T05:09:49.607Z,12.30
2022-10-29T05:12:16.325Z,12.50
2022-10-29T05:14:43.315Z,12.50
2022-10-29T05:17:10.069Z,12.50
2022-10-29T05:19:36.833Z,12.40
2022-10-29T05:22:03.585Z,12.50
2022-10-29T05:24:30.355Z,12.40
2022-10-29T05:26:57.186Z,12.40
2022-10-29T05:29:23.920Z,12.40
2022-10-29T05:31:53.438Z,12.30
2022-10-29T05:34:21.515Z,12.30
2022-10-29T05:36:48.845Z,12.30
2022-10-29T05:39:16.155Z,12.20
2022-10-29T05:41:42.981Z,12.20
2022-10-29T05:44:09.900Z,12.30
2022-10-29T05:46:38.265Z,12.20
2022-10-29T05:49:05.090Z,12.20
2022-10-29T05:51:32.009Z,12.30
2022-10-29T05:53:59.243Z,12.30
2022-10-29T05:56:26.181Z,12.40
2022-10-29T05:58:53.312Z,12.40
2022-10-29T06:01:20.499Z,12.40
2022-10-29T06:03:47.729Z,12.50
2022-10-29T06:06:14.646Z,12.60
2022-10-29T06:08:41.581Z,12.60
2022-10-29T06:11:08.383Z,12.50
2022-10-29T06:13:35.570Z,12.30
2022-10-29T06:16:02.594Z,12.30
2022-10-29T06:18:30.023Z,12.70
2022-10-29T06:21:00.895Z,12.90
2022-10-29T06:23:28.752Z,12.80
2022-10-29T06:25:55.516Z,12.60
2022-10-29T06:28:22.254Z,12.50
2022-10-29T06:30:50.247Z,12.50
2022-10-29T06:33:20.876Z,12.40
2022-10-29T06:35:48.441Z,12.40
2022-10-29T06:38:15.500Z,12.40
2022-10-29T06:40:43.121Z,12.50
2022-10-29T06:43:11.979Z,12.50
2022-10-29T06:45:38.782Z,12.50
2022-10-29T06:48:05.904Z,12.50
2022-10-29T06:50:32.703Z,13.00
2022-10-29T06:53:07.257Z,14.20
2022-10-29T06:55:35.223Z,14.40
2022-10-29T06:58:04.866Z,14.20
2022-10-29T07:00:32.662Z,14.10
2022-10-29T07:03:00.111Z,14.10
2022-10-29T07:05:27.499Z,14.20
2022-10-29T07:08:01.289Z,14.20
2022-10-29T07:10:32.113Z,14.20
2022-10-29T07:13:00.092Z,14.00
2022-10-29T07:15:30.485Z,14.00
2022-10-29T07:18:02.259Z,14.00
2022-10-29T07:20:31.728Z,14.10
2022-10-29T07:23:01.224Z,14.10
2022-10-29T07:25:29.170Z,14.20
2022-10-29T07:28:12.075Z,14.30
2022-10-29T07:30:43.259Z,14.00
2022-10-29T07:33:11.147Z,14.40
2022-10-29T07:35:38.102Z,14.50
2022-10-29T07:38:09.186Z,14.50
2022-10-29T07:40:38.843Z,14.60
2022-10-29T07:43:06.064Z,14.80
2022-10-29T07:45:33.250Z,14.80
2022-10-29T07:48:02.913Z,14.90
2022-10-29T07:50:32.632Z,15.00
2022-10-29T07:53:01.110Z,15.20
2022-10-29T07:58:02.268Z,15.40
2022-10-29T08:00:30.603Z,15.30
2022-10-29T08:02:57.631Z,15.30
2022-10-29T08:05:26.488Z,15.50
2022-10-29T08:10:37.949Z,15.70
2022-10-29T08:13:06.939Z,15.70
2022-10-29T08:15:35.006Z,15.80
2022-10-29T08:18:20.480Z,15.80
2022-10-29T08:20:47.744Z,15.60
2022-10-29T08:23:15.026Z,15.90
2022-10-29T08:25:42.989Z,16.10
2022-10-29T08:28:15.422Z,16.30
2022-10-29T08:30:46.072Z,16.30
2022-10-29T08:33:12.811Z,16.60
2022-10-29T08:35:39.592Z,16.60
2022-10-29T08:38:06.924Z,16.70
2022-10-29T08:40:59.163Z,16.70
2022-10-29T08:43:47.705Z,17.90
2022-10-29T08:46:39.054Z,17.00
2022-10-29T08:49:21.375Z,17.20
2022-10-29T08:51:57.995Z,17.50
2022-10-29T08:54:32.221Z,17.70
2022-10-29T08:57:05.944Z,17.80
2022-10-29T08:59:38.389Z,18.00
2022-10-29T09:02:05.219Z,18.10
2022-10-29T09:05:00.281Z,18.20
2022-10-29T09:08:02.332Z,18.30
2022-10-29T09:10:52.799Z,18.60
2022-10-29T09:13:48.254Z,19.00
2022-10-29T09:16:22.954Z,19.30
2022-10-29T09:19:11.918Z,19.60
2022-10-29T09:22:17.066Z,19.80
2022-10-29T09:25:00.229Z,20.10
2022-10-29T09:27:56.177Z,20.50
2022-10-29T09:30:23.446Z,20.80
2022-10-29T09:33:26.360Z,20.90
2022-10-29T09:35:59.522Z,21.00
2022-10-29T09:38:44.206Z,21.30
2022-10-29T09:41:12.605Z,21.60
2022-10-29T09:43:45.398Z,22.00
2022-10-29T09:46:15.209Z,22.40
2022-10-29T09:51:43.609Z,23.20
2022-10-29T09:54:13.514Z,23.50
2022-10-29T09:56:48.556Z,23.80
2022-10-29T09:59:33.681Z,22.90
2022-10-29T10:02:18.541Z,24.90
2022-10-29T10:04:49.238Z,25.10
2022-10-29T10:07:22.273Z,25.70
2022-10-29T10:09:52.831Z,26.60
2022-10-29T10:12:22.162Z,27.10
2022-10-29T10:14:49.227Z,27.80
2022-10-29T10:17:16.005Z,28.70
2022-10-29T10:19:48.306Z,29.40
2022-10-29T10:22:21.044Z,29.60
2022-10-29T10:24:48.566Z,29.90
2022-10-29T10:27:18.167Z,30.30
2022-10-29T10:30:05.512Z,31.10
2022-10-29T10:32:32.356Z,31.30
2022-10-29T10:34:59.516Z,32.60
2022-10-29T10:37:30.589Z,33.20
2022-10-29T10:40:03.094Z,34.00
2022-10-29T10:42:37.128Z,34.70
2022-10-29T10:45:15.003Z,34.70
2022-10-29T10:47:47.697Z,35.30
2022-10-29T10:50:22.848Z,35.80
2022-10-29T10:52:51.565Z,35.90
2022-10-29T10:55:33.812Z,36.20
2022-10-29T10:58:18.759Z,36.70
2022-10-29T11:00:56.117Z,37.20
2022-10-29T11:03:38.983Z,37.40
2022-10-29T11:06:19.330Z,38.00
2022-10-29T11:08:56.396Z,38.50
2022-10-29T11:11:47.671Z,38.80
2022-10-29T11:14:52.659Z,38.90
2022-10-29T11:17:29.108Z,39.10
2022-10-29T11:20:02.216Z,39.50
2022-10-29T11:22:31.983Z,38.50
2022-10-29T11:25:21.857Z,39.60
2022-10-29T11:28:03.570Z,40.10
2022-10-29T11:30:34.160Z,40.20
2022-10-29T11:33:16.871Z,40.20
2022-10-29T11:35:48.761Z,40.30
2022-10-29T11:38:28.544Z,40.00
2022-10-29T11:41:07.558Z,40.10
2022-10-29T11:43:34.481Z,40.00
2022-10-29T11:46:13.092Z,40.30
2022-10-29T11:48:52.165Z,40.60
2022-10-29T11:51:35.817Z,41.00
2022-10-29T11:54:08.518Z,41.10
2022-10-29T11:56:47.587Z,40.90
2022-10-29T11:59:21.507Z,41.40
2022-10-29T12:02:16.205Z,41.10
2022-10-29T12:04:51.134Z,41.10
2022-10-29T12:07:33.695Z,40.80
2022-10-29T12:10:12.908Z,40.30
2022-10-29T12:12:53.419Z,40.30
2022-10-29T12:15:36.295Z,40.40
2022-10-29T12:18:18.212Z,40.60
2022-10-29T12:21:25.874Z,40.80
2022-10-29T12:24:23.011Z,40.70
2022-10-29T12:27:06.786Z,40.50
2022-10-29T12:29:49.728Z,40.60
2022-10-29T12:32:31.166Z,40.90
2022-10-29T12:35:08.330Z,40.10
2022-10-29T12:37:48.970Z,40.00
2022-10-29T12:40:23.162Z,39.40
2022-10-29T12:42:51.951Z,39.40
2022-10-29T12:45:36.899Z,39.60
2022-10-29T12:48:27.285Z,39.60
2022-10-29T12:50:54.031Z,39.50
2022-10-29T12:53:50.001Z,39.70
2022-10-29T12:56:17.326Z,39.70
2022-10-29T12:58:49.603Z,39.60
2022-10-29T13:02:11.172Z,39.40
2022-10-29T13:04:31.043Z,39.50
2022-10-29T13:07:18.864Z,39.60
2022-10-29T13:09:48.376Z,39.70
2022-10-29T13:12:54.245Z,39.60
2022-10-29T13:15:24.125Z,39.20
2022-10-29T13:17:52.770Z,39.10
2022-10-29T13:20:30.720Z,38.90
2022-10-29T13:22:59.690Z,38.70
2022-10-29T13:25:36.156Z,38.70
2022-10-29T13:28:08.712Z,38.90
2022-10-29T13:30:41.232Z,38.70
2022-10-29T13:33:26.600Z,38.80
2022-10-29T13:36:00.284Z,38.30
2022-10-29T13:39:06.111Z,37.80
2022-10-29T13:41:44.502Z,37.50
2022-10-29T13:44:24.361Z,37.40
2022-10-29T13:47:01.347Z,37.60
2022-10-29T13:49:38.040Z,37.60
2022-10-29T13:52:06.637Z,37.80
2022-10-29T13:54:57.579Z,37.80
2022-10-29T13:57:34.449Z,38.10
2022-10-29T14:00:04.762Z,38.20
2022-10-29T14:02:48.098Z,37.80
2022-10-29T14:05:23.850Z,37.30
2022-10-29T14:07:56.715Z,37.40
2022-10-29T14:10:35.457Z,36.90
2022-10-29T14:13:21.995Z,36.80
2022-10-29T14:16:09.592Z,36.80
2022-10-29T14:18:43.246Z,37.00
2022-10-29T14:21:26.389Z,36.70
2022-10-29T14:23:57.342Z,36.60
2022-10-29T14:26:24.958Z,36.60
2022-10-29T14:28:52.514Z,36.50
2022-10-29T14:31:24.811Z,36.20
2022-10-29T14:33:57.504Z,36.10
2022-10-29T14:36:32.319Z,36.10
2022-10-29T14:39:04.749Z,35.90
2022-10-29T14:41:32.216Z,35.80
2022-10-29T14:44:08.390Z,35.30
2022-10-29T14:46:37.472Z,35.10
2022-10-29T14:49:25.536Z,34.60
2022-10-29T14:51:54.453Z,34.20
2022-10-29T14:54:34.321Z,33.90
2022-10-29T14:57:06.425Z,33.60
2022-10-29T14:59:35.276Z,33.30
2022-10-29T15:02:36.175Z,32.90
2022-10-29T15:05:01.867Z,32.20
2022-10-29T15:07:36.011Z,31.40
2022-10-29T15:10:08.917Z,30.90
2022-10-29T15:12:38.593Z,30.60
2022-10-29T15:15:10.762Z,29.90
2022-10-29T15:18:02.033Z,29.40
2022-10-29T15:20:40.855Z,29.00
2022-10-29T15:23:32.266Z,28.10
2022-10-29T15:26:03.845Z,27.30
2022-10-29T15:28:37.730Z,26.50
2022-10-29T15:31:04.912Z,25.50
2022-10-29T15:33:32.404Z,24.90
2022-10-29T15:36:02.515Z,24.10
2022-10-29T15:38:35.014Z,23.60
2022-10-29T15:41:20.009Z,22.90
2022-10-29T15:43:57.367Z,22.30
2022-10-29T15:46:44.323Z,21.80
2022-10-29T15:49:17.376Z,21.30
2022-10-29T15:51:44.199Z,21.00
2022-10-29T15:54:14.051Z,20.70
2022-10-29T15:56:40.893Z,20.50
2022-10-29T15:59:12.093Z,20.20
2022-10-29T16:01:38.946Z,19.90
2022-10-29T16:04:05.826Z,19.70
2022-10-29T16:06:32.978Z,19.40
2022-10-29T16:09:00.325Z,19.20
2022-10-29T16:11:27.731Z,19.10
2022-10-29T16:13:55.565Z,18.90
2022-10-29T16:16:24.717Z,18.70
2022-10-29T16:18:52.743Z,18.60
2022-10-29T16:21:22.789Z,18.50
2022-10-29T16:23:49.915Z,18.40
2022-10-29T16:26:22.386Z,18.30
2022-10-29T16:28:49.499Z,18.30
2022-10-29T16:31:21.700Z,18.20
2022-10-29T16:33:49.383Z,18.20
2022-10-29T16:36:16.608Z,18.10
2022-10-29T16:38:43.916Z,18.00
2022-10-29T16:41:15.468Z,17.80
2022-10-29T16:43:42.702Z,17.70
2022-10-29T16:46:11.149Z,17.60
2022-10-29T16:48:39.138Z,17.50
2022-10-29T16:51:06.454Z,17.50
2022-10-29T16:53:33.286Z,17.30
2022-10-29T16:56:00.148Z,17.20
2022-10-29T16:58:26.994Z,17.20
2022-10-29T17:01:05.414Z,17.20
2022-10-29T17:03:36.054Z,17.00
2022-10-29T17:06:10.457Z,16.90
2022-10-29T17:08:38.273Z,16.80
2022-10-29T17:11:09.963Z,16.80
2022-10-29T17:13:37.684Z,16.80
2022-10-29T17:16:09.287Z,16.80
2022-10-29T17:18:36.586Z,16.70
2022-10-29T17:21:04.639Z,16.60
2022-10-29T17:23:32.794Z,16.50
2022-10-29T17:26:00.196Z,16.40
2022-10-29T17:28:28.211Z,16.20
2022-10-29T17:30:54.980Z,16.20
2022-10-29T17:33:21.836Z,16.10
2022-10-29T17:35:48.705Z,16.10
2022-10-29T17:38:15.471Z,16.10
2022-10-29T17:40:46.231Z,16.10
2022-10-29T17:43:13.516Z,16.10
2022-10-29T17:45:43.667Z,16.20
2022-10-29T17:48:11.652Z,16.20
2022-10-29T17:50:38.399Z,16.20
2022-10-29T17:53:05.234Z,16.10
2022-10-29T17:55:32.053Z,16.10
2022-10-29T17:57:59.260Z,16.00
2022-10-29T18:00:26.632Z,16.00
2022-10-29T18:02:53.807Z,16.00
2022-10-29T18:05:21.169Z,16.00
2022-10-29T18:07:47.972Z,15.90
2022-10-29T18:10:15.934Z,15.80
2022-10-29T18:12:42.830Z,15.80
2022-10-29T18:15:10.353Z,15.80
2022-10-29T18:17:37.184Z,15.70
2022-10-29T18:20:04.518Z,15.70
2022-10-29T18:22:31.661Z,15.70
2022-10-29T18:24:58.859Z,15.70
2022-10-29T18:27:25.720Z,15.70
2022-10-29T18:29:52.561Z,15.60
2022-10-29T18:32:22.546Z,15.60
2022-10-29T18:34:49.326Z,15.60
2022-10-29T18:37:16.449Z,15.50
2022-10-29T18:39:43.221Z,15.50
2022-10-29T18:42:10.462Z,15.40
2022-10-29T18:44:39.036Z,15.50
2022-10-29T18:47:05.958Z,15.40
2022-10-29T18:49:32.692Z,15.40
2022-10-29T18:51:59.410Z,15.30
2022-10-29T18:54:26.261Z,15.20
2022-10-29T18:56:53.121Z,15.00
2022-10-29T18:59:19.946Z,15.00
2022-10-29T19:01:46.849Z,15.00
2022-10-29T19:04:16.291Z,15.00
2022-10-29T19:06:43.201Z,15.00
2022-10-29T19:09:10.927Z,15.00
2022-10-29T19:11:38.959Z,15.10
2022-10-29T19:14:08.114Z,15.00
2022-10-29T19:16:35.594Z,14.90
2022-10-29T19:19:07.053Z,14.80
2022-10-29T19:21:35.938Z,14.90
2022-10-29T19:24:03.228Z,14.90
2022-10-29T19:26:31.666Z,14.90
2022-10-29T19:29:01.179Z,14.90
2022-10-29T19:31:29.709Z,14.80
2022-10-29T19:33:58.743Z,14.80
2022-10-29T19:36:27.141Z,14.70
2022-10-29T19:38:54.148Z,14.70
2022-10-29T19:41:21.271Z,14.60
2022-10-29T19:43:48.651Z,14.50
2022-10-29T19:46:17.712Z,14.50
2022-10-29T19:48:50.570Z,14.50
2022-10-29T19:51:17.788Z,14.50
2022-10-29T19:53:44.951Z,14.50
2022-10-29T19:56:13.008Z,14.50
2022-10-29T19:58:40.278Z,14.60
2022-10-29T20:01:14.734Z,14.50
2022-10-29T20:03:41.934Z,14.60
2022-10-29T20:06:09.596Z,14.50
2022-10-29T20:08:37.361Z,14.40
2022-10-29T20:11:04.946Z,14.50
2022-10-29T20:13:31.915Z,14.40
2022-10-29T20:15:59.535Z,14.40
2022-10-29T20:18:26.796Z,14.30
2022-10-29T20:20:57.770Z,14.30
2022-10-29T20:23:25.743Z,14.20
2022-10-29T20:25:52.688Z,14.20
2022-10-29T20:28:19.923Z,14.20
2022-10-29T20:30:46.879Z,14.20
2022-10-29T20:33:13.731Z,14.20
2022-10-29T20:35:40.926Z,14.20
2022-10-29T20:38:07.838Z,14.00
2022-10-29T20:40:34.642Z,13.90
2022-10-29T20:43:01.904Z,13.80
2022-10-29T20:45:29.112Z,13.70
2022-10-29T20:47:56.446Z,13.60
2022-10-29T20:50:23.451Z,13.60
2022-10-29T20:52:51.379Z,13.50
2022-10-29T20:55:18.614Z,13.50
2022-10-29T20:57:45.486Z,13.50
2022-10-29T21:00:12.694Z,13.40
2022-10-29T21:02:40.117Z,13.40
2022-10-29T21:05:07.515Z,13.30
2022-10-29T21:07:34.379Z,13.20
2022-10-29T21:10:01.152Z,13.10
2022-10-29T21:12:27.898Z,13.10
2022-10-29T21:14:54.717Z,13.10
2022-10-29T21:17:24.618Z,13.10
2022-10-29T21:19:51.369Z,13.10
2022-10-29T21:22:19.161Z,13.00
2022-10-29T21:24:46.653Z,13.00
2022-10-29T21:27:13.490Z,13.10
2022-10-29T21:29:40.238Z,13.10
2022-10-29T21:32:10.225Z,13.20
2022-10-29T21:34:41.696Z,13.30
2022-10-29T21:37:08.875Z,13.30
2022-10-29T21:39:35.692Z,13.40
2022-10-29T21:42:02.548Z,13.30
2022-10-29T21:44:29.313Z,13.40
2022-10-29T21:46:56.046Z,13.30
2022-10-29T21:49:22.973Z,13.30
2022-10-29T21:51:50.038Z,13.40
2022-10-29T21:54:16.920Z,13.30
2022-10-29T21:56:43.741Z,13.30
2022-10-29T21:59:10.651Z,13.20
2022-10-29T22:01:37.522Z,13.20
2022-10-29T22:04:05.085Z,13.20
2022-10-29T22:06:34.579Z,13.20
2022-10-29T22:09:03.711Z,13.10
2022-10-29T22:11:30.486Z,13.10
2022-10-29T22:13:57.380Z,13.10
2022-10-29T22:16:24.221Z,13.00
2022-10-29T22:18:51.426Z,12.90
2022-10-29T22:21:23.915Z,12.90
2022-10-29T22:23:52.890Z,12.80
2022-10-29T22:26:22.847Z,12.70
2022-10-29T22:28:50.267Z,12.70
2022-10-29T22:31:19.698Z,12.60
2022-10-29T22:33:47.164Z,12.60
2022-10-29T22:36:17.057Z,12.50
2022-10-29T22:38:44.313Z,12.40
2022-10-29T22:41:13.428Z,12.50
2022-10-29T22:43:40.786Z,12.60
2022-10-29T22:46:09.174Z,12.60
2022-10-29T22:48:36.425Z,12.50
2022-10-29T22:51:10.912Z,12.50
2022-10-29T22:53:37.885Z,12.60
2022-10-29T22:56:05.874Z,12.60
2022-10-29T22:58:33.219Z,12.60
2022-10-29T23:01:05.963Z,12.60
2022-10-29T23:03:33.380Z,12.60
2022-10-29T23:06:02.182Z,12.70
2022-10-29T23:08:29.756Z,12.70
2022-10-29T23:10:56.885Z,12.70
2022-10-29T23:13:23.932Z,12.80
2022-10-29T23:15:52.928Z,12.60
2022-10-29T23:18:19.947Z,12.60
2022-10-29T23:20:47.089Z,12.60
2022-10-29T23:23:14.510Z,12.50
2022-10-29T23:25:41.842Z,12.60
2022-10-29T23:28:09.490Z,12.70
2022-10-29T23:30:36.452Z,12.70
2022-10-29T23:33:03.255Z,12.60
2022-10-29T23:35:30.028Z,12.60
2022-10-29T23:37:57.378Z,12.60
2022-10-29T23:40:24.849Z,12.50
2022-10-29T23:42:52.182Z,12.40
2022-10-29T23:45:19.344Z,12.40
2022-10-29T23:47:46.134Z,12.30
2022-10-29T23:50:12.894Z,12.20
2022-10-29T23:52:39.725Z,12.20
2022-10-29T23:55:06.946Z,12.10
2022-10-29T23:57:33.830Z,12.10
